createdAt,value
2023-04-25T00:02:18.471Z,91.63
2023-04-25T00:04:46.704Z,91.81
2023-04-25T00:07:14.719Z,91.76
2023-04-25T00:09:42.768Z,91.70
2023-04-25T00:12:13.420Z,91.72
2023-04-25T00:14:41.470Z,91.88
2023-04-25T00:17:09.578Z,91.85
2023-04-25T00:19:37.405Z,92.17
2023-04-25T00:22:05.218Z,92.16
2023-04-25T00:24:33.052Z,92.30
2023-04-25T00:27:03.539Z,92.30
2023-04-25T00:29:40.091Z,92.56
2023-04-25T00:32:07.878Z,92.82
2023-04-25T00:34:35.761Z,93.04
2023-04-25T00:37:03.711Z,92.93
2023-04-25T00:39:31.591Z,92.89
2023-04-25T00:42:05.760Z,93.08
2023-04-25T00:44:34.468Z,93.04
2023-04-25T00:47:03.349Z,93.05
2023-04-25T00:49:31.308Z,93.06
2023-04-25T00:51:59.172Z,92.88
2023-04-25T00:54:26.975Z,92.88
2023-04-25T00:56:54.762Z,92.74
2023-04-25T00:59:22.694Z,92.96
2023-04-25T01:01:53.134Z,92.92
2023-04-25T01:04:21.290Z,93.15
2023-04-25T01:06:49.576Z,93.05
2023-04-25T01:09:17.420Z,92.92
2023-04-25T01:11:46.325Z,92.97
2023-04-25T01:14:14.206Z,93.08
2023-04-25T01:16:42.092Z,93.27
2023-04-25T01:19:10.887Z,93.15
2023-04-25T01:21:38.827Z,93.15
2023-04-25T01:24:07.472Z,93.21
2023-04-25T01:26:36.010Z,93.36
2023-04-25T01:29:07.372Z,93.18
2023-04-25T01:31:36.459Z,93.32
2023-04-25T01:34:07.119Z,93.56
2023-04-25T01:36:38.094Z,93.64
2023-04-25T01:39:05.973Z,94.05
2023-04-25T01:41:34.630Z,94.06
2023-04-25T01:44:09.766Z,94.52
2023-04-25T01:46:37.863Z,94.93
2023-04-25T01:49:06.410Z,94.80
2023-04-25T01:51:34.694Z,95.18
2023-04-25T01:54:08.619Z,95.54
2023-04-25T01:56:51.232Z,95.62
2023-04-25T01:59:22.355Z,96.04
2023-04-25T02:02:10.747Z,96.37
2023-04-25T02:04:39.004Z,96.28
2023-04-25T02:07:07.515Z,96.48
2023-04-25T02:09:49.343Z,97.25
2023-04-25T02:12:21.598Z,97.21
2023-04-25T02:15:26.128Z,97.15
2023-04-25T02:18:01.056Z,97.16
2023-04-25T02:20:29.857Z,97.04
2023-04-25T02:23:00.058Z,97.05
2023-04-25T02:25:40.183Z,97.18
2023-04-25T02:28:11.192Z,97.17
2023-04-25T02:30:41.871Z,97.57
2023-04-25T02:33:14.994Z,97.60
2023-04-25T02:35:59.109Z,97.77
2023-04-25T02:38:26.857Z,97.84
2023-04-25T02:40:54.828Z,97.77
2023-04-25T02:43:34.417Z,98.13
2023-04-25T02:46:07.404Z,97.88
2023-04-25T02:48:41.221Z,98.26
2023-04-25T02:51:29.010Z,98.14
2023-04-25T02:54:04.473Z,98.63
2023-04-25T02:56:47.663Z,98.73
2023-04-25T02:59:24.147Z,98.85
2023-04-25T03:02:12.250Z,98.79
2023-04-25T03:04:40.293Z,98.89
2023-04-25T03:07:08.959Z,98.93
2023-04-25T03:09:45.789Z,98.76
2023-04-25T03:12:13.784Z,98.81
2023-04-25T03:14:48.999Z,98.99
2023-04-25T03:17:16.782Z,98.95
2023-04-25T03:19:44.585Z,99.17
2023-04-25T03:22:20.001Z,98.54
2023-04-25T03:24:47.886Z,98.99
2023-04-25T03:27:16.039Z,98.66
2023-04-25T03:29:44.050Z,98.76
2023-04-25T03:32:12.288Z,98.82
2023-04-25T03:34:42.711Z,98.70
2023-04-25T03:37:13.128Z,99.34
2023-04-25T03:39:41.832Z,98.52
2023-04-25T03:42:11.004Z,98.70
2023-04-25T03:44:38.774Z,98.42
2023-04-25T03:47:06.587Z,98.48
2023-04-25T03:49:35.049Z,98.43
2023-04-25T03:52:04.902Z,98.26
2023-04-25T03:54:38.213Z,98.42
2023-04-25T03:57:15.306Z,98.59
2023-04-25T03:59:43.926Z,97.96
2023-04-25T04:02:13.384Z,97.90
2023-04-25T04:04:42.883Z,97.45
2023-04-25T04:07:11.202Z,97.55
2023-04-25T04:09:41.685Z,97.31
2023-04-25T04:12:14.621Z,96.93
2023-04-25T04:14:43.299Z,96.97
2023-04-25T04:17:11.204Z,96.44
2023-04-25T04:19:39.215Z,96.73
2023-04-25T04:22:11.775Z,96.61
2023-04-25T04:24:40.328Z,96.61
2023-04-25T04:27:09.507Z,96.52
2023-04-25T04:29:39.957Z,96.25
2023-04-25T04:32:28.081Z,96.40
2023-04-25T04:34:56.076Z,96.10
2023-04-25T04:37:24.849Z,96.17
2023-04-25T04:39:53.085Z,95.97
2023-04-25T04:42:47.039Z,95.78
2023-04-25T04:45:37.898Z,95.56
2023-04-25T04:48:23.776Z,95.49
2023-04-25T04:51:09.998Z,95.87
2023-04-25T04:54:10.120Z,96.31
2023-04-25T04:57:13.199Z,96.43
2023-04-25T05:00:18.496Z,96.32
2023-04-25T05:03:15.001Z,96.21
2023-04-25T05:05:52.960Z,96.07
2023-04-25T05:08:41.170Z,95.48
2023-04-25T05:11:25.330Z,95.90
2023-04-25T05:14:13.609Z,95.65
2023-04-25T05:16:41.484Z,95.60
2023-04-25T05:19:25.312Z,95.81
2023-04-25T05:22:04.086Z,95.94
2023-04-25T05:24:38.992Z,95.92
2023-04-25T05:27:27.130Z,95.75
2023-04-25T05:30:13.137Z,95.42
2023-04-25T05:32:57.923Z,95.09
2023-04-25T05:35:28.703Z,95.16
2023-04-25T05:37:57.161Z,95.25
2023-04-25T05:40:38.077Z,95.03
2023-04-25T05:43:38.107Z,94.78
2023-04-25T05:46:26.081Z,94.48
2023-04-25T05:49:12.792Z,94.34
2023-04-25T05:51:54.807Z,93.90
2023-04-25T05:54:42.788Z,94.15
2023-04-25T05:57:26.188Z,94.09
2023-04-25T05:59:57.636Z,93.98
2023-04-25T06:02:41.356Z,94.17
2023-04-25T06:05:13.727Z,94.29
2023-04-25T06:07:41.782Z,94.03
2023-04-25T06:10:12.502Z,93.67
2023-04-25T06:12:40.438Z,93.29
2023-04-25T06:15:20.106Z,93.69
2023-04-25T06:18:00.608Z,93.09
2023-04-25T06:20:38.295Z,93.13
2023-04-25T06:23:26.569Z,92.60
2023-04-25T06:26:06.252Z,92.57
2023-04-25T06:28:54.309Z,92.33
2023-04-25T06:31:34.078Z,91.94
2023-04-25T06:34:24.508Z,91.93
2023-04-25T06:36:52.400Z,92.14
2023-04-25T06:39:20.258Z,92.44
2023-04-25T06:41:59.127Z,91.75
2023-04-25T06:45:01.045Z,90.89
2023-04-25T06:47:32.128Z,90.63
2023-04-25T06:50:03.542Z,90.47
2023-04-25T06:52:32.412Z,90.58
2023-04-25T06:55:03.514Z,90.28
2023-04-25T06:57:52.092Z,89.85
2023-04-25T07:00:43.154Z,89.63
2023-04-25T07:03:17.087Z,88.90
2023-04-25T07:05:45.370Z,88.48
2023-04-25T07:08:15.787Z,88.40
2023-04-25T12:12:48.140Z,51.86
2023-04-25T12:15:18.732Z,51.58
2023-04-25T12:17:46.304Z,51.90
2023-04-25T12:20:14.173Z,50.40
2023-04-25T12:22:41.387Z,50.03
2023-04-25T12:25:08.095Z,49.34
2023-04-25T12:27:35.897Z,49.01
2023-04-25T12:30:02.422Z,49.72
2023-04-25T12:32:29.113Z,49.93
2023-04-25T12:34:58.654Z,49.52
2023-04-25T12:37:28.633Z,50.30
2023-04-25T12:40:22.864Z,50.74
2023-04-25T12:43:02.552Z,50.31
2023-04-25T12:45:29.396Z,50.71
2023-04-25T12:47:55.802Z,50.19
2023-04-25T12:50:22.299Z,50.54
2023-04-25T12:52:48.882Z,50.62
2023-04-25T12:55:18.168Z,51.06
2023-04-25T12:57:44.651Z,51.10
2023-04-25T13:00:12.286Z,51.12
2023-04-25T13:02:38.900Z,51.28
2023-04-25T13:05:05.696Z,51.63
2023-04-25T13:07:34.092Z,51.59
2023-04-25T13:10:05.474Z,51.40
2023-04-25T13:12:35.092Z,51.45
2023-04-25T13:15:01.531Z,51.73
2023-04-25T13:17:28.824Z,52.14
2023-04-25T13:19:58.464Z,52.27
2023-04-25T13:22:27.584Z,52.42
2023-04-25T13:24:54.073Z,51.97
2023-04-25T13:27:20.770Z,51.83
2023-04-25T13:29:47.261Z,51.67
2023-04-25T13:32:13.736Z,52.18
2023-04-25T13:34:40.425Z,52.44
2023-04-25T13:37:07.003Z,52.57
2023-04-25T13:39:36.486Z,52.80
2023-04-25T13:42:03.097Z,53.19
2023-04-25T13:44:37.144Z,52.98
2023-04-25T13:47:04.067Z,52.91
2023-04-25T13:49:30.564Z,52.62
2023-04-25T13:52:01.397Z,51.82
2023-04-25T13:54:28.215Z,52.48
2023-04-25T13:56:54.815Z,52.26
2023-04-25T13:59:24.397Z,52.75
2023-04-25T14:01:51.005Z,52.61
2023-04-25T14:04:17.605Z,52.79
2023-04-25T14:06:44.254Z,52.30
2023-04-25T14:09:11.110Z,52.26
2023-04-25T14:11:37.730Z,52.60
2023-04-25T14:14:04.166Z,52.48
2023-04-25T14:16:31.145Z,52.03
2023-04-25T14:19:00.826Z,52.12
2023-04-25T14:21:30.422Z,52.48
2023-04-25T14:23:56.946Z,52.37
2023-04-25T14:26:23.648Z,52.39
2023-04-25T14:28:51.269Z,52.88
2023-04-25T14:31:17.964Z,51.73
2023-04-25T14:33:44.673Z,51.98
2023-04-25T14:36:11.242Z,51.97
2023-04-25T14:38:38.043Z,51.97
2023-04-25T14:41:04.438Z,52.08
2023-04-25T14:43:30.869Z,52.21
2023-04-25T14:45:58.590Z,51.94
2023-04-25T14:48:25.474Z,52.25
2023-04-25T14:50:52.181Z,52.00
2023-04-25T14:53:19.069Z,51.96
2023-04-25T14:55:45.453Z,52.22
2023-04-25T14:58:14.501Z,52.50
2023-04-25T15:00:41.074Z,53.24
2023-04-25T15:03:07.727Z,53.70
2023-04-25T15:05:36.798Z,53.95
2023-04-25T15:08:03.447Z,54.51
2023-04-25T15:10:30.141Z,54.71
2023-04-25T15:12:56.969Z,55.12
2023-04-25T15:15:26.952Z,55.07
2023-04-25T15:17:55.799Z,54.91
2023-04-25T15:20:24.586Z,53.89
2023-04-25T15:22:51.174Z,53.05
2023-04-25T15:25:17.674Z,51.61
2023-04-25T15:27:45.049Z,50.50
2023-04-25T15:30:15.509Z,49.53
2023-04-25T15:32:42.907Z,49.28
2023-04-25T15:35:10.498Z,48.91
2023-04-25T15:37:37.334Z,48.16
2023-04-25T15:40:08.738Z,47.94
2023-04-25T15:42:36.237Z,48.39
2023-04-25T15:45:09.281Z,48.52
2023-04-25T15:47:38.509Z,48.94
2023-04-25T15:50:06.122Z,48.66
2023-04-25T15:52:32.626Z,48.63
2023-04-25T15:54:59.222Z,49.03
2023-04-25T15:57:25.593Z,49.42
2023-04-25T15:59:52.384Z,49.90
2023-04-25T16:02:25.242Z,49.63
2023-04-25T16:04:51.882Z,49.71
2023-04-25T16:07:18.584Z,50.12
2023-04-25T16:09:45.201Z,50.35
2023-04-25T16:12:11.725Z,50.84
2023-04-25T16:14:38.844Z,51.21
2023-04-25T16:17:12.608Z,51.71
2023-04-25T16:19:40.180Z,51.86
2023-04-25T16:22:06.986Z,52.27
2023-04-25T16:24:33.986Z,52.78
2023-04-25T16:27:12.543Z,52.81
2023-04-25T16:29:46.418Z,53.06
2023-04-25T16:32:15.800Z,53.03
2023-04-25T16:34:45.162Z,53.37
2023-04-25T16:37:14.415Z,53.60
2023-04-25T16:39:47.056Z,53.44
2023-04-25T16:42:13.718Z,53.54
2023-04-25T16:44:43.627Z,53.56
2023-04-25T16:47:10.575Z,53.47
2023-04-25T16:49:37.667Z,53.59
2023-04-25T16:52:04.317Z,53.88
2023-04-25T16:54:30.907Z,53.81
2023-04-25T16:56:57.696Z,53.44
2023-04-25T16:59:26.928Z,53.41
2023-04-25T17:01:53.419Z,53.62
2023-04-25T17:04:19.998Z,53.74
2023-04-25T17:06:49.274Z,53.70
2023-04-25T17:09:15.821Z,54.11
2023-04-25T17:11:45.017Z,54.22
2023-04-25T17:14:14.434Z,54.31
2023-04-25T17:16:41.101Z,54.39
2023-04-25T17:19:07.851Z,54.59
2023-04-25T17:21:34.647Z,55.06
2023-04-25T17:24:01.134Z,55.07
2023-04-25T17:26:29.359Z,55.25
2023-04-25T17:28:55.877Z,55.44
2023-04-25T17:31:22.548Z,55.68
2023-04-25T17:33:49.144Z,56.03
2023-04-25T17:36:15.616Z,56.36
2023-04-25T17:38:42.287Z,56.73
2023-04-25T17:41:09.018Z,56.81
2023-04-25T17:43:35.677Z,56.84
2023-04-25T17:46:04.903Z,57.00
2023-04-25T17:48:31.829Z,57.14
2023-04-25T17:50:58.491Z,57.20
2023-04-25T17:53:24.951Z,57.40
2023-04-25T17:55:51.375Z,57.23
2023-04-25T17:58:17.882Z,57.20
2023-04-25T18:00:47.782Z,57.29
2023-04-25T18:03:37.869Z,57.59
2023-04-25T18:06:25.486Z,57.55
2023-04-25T18:08:56.911Z,57.51
2023-04-25T18:11:23.946Z,57.71
2023-04-25T18:13:51.556Z,57.97
2023-04-25T18:16:18.496Z,57.95
2023-04-25T18:18:46.130Z,57.96
2023-04-25T18:21:12.725Z,58.29
2023-04-25T18:24:07.593Z,58.44
2023-04-25T18:26:36.360Z,58.44
2023-04-25T18:29:03.293Z,58.69
2023-04-25T18:31:32.403Z,58.80
2023-04-25T18:33:59.141Z,58.98
2023-04-25T18:36:25.610Z,59.19
2023-04-25T18:38:55.267Z,59.19
2023-04-25T18:44:22.181Z,59.59
2023-04-25T18:46:48.676Z,59.74
2023-04-25T18:49:15.251Z,59.87
2023-04-25T18:51:42.208Z,59.98
2023-04-25T18:54:08.634Z,60.28
2023-04-25T18:56:57.824Z,60.31
2023-04-25T18:59:24.324Z,60.59
2023-04-25T19:01:50.911Z,60.74
2023-04-25T19:04:46.052Z,60.92
2023-04-25T19:07:12.547Z,61.06
2023-04-25T19:09:39.951Z,61.36
2023-04-25T19:12:07.750Z,61.45
2023-04-25T19:14:34.359Z,61.74
2023-04-25T19:20:17.518Z,62.05
2023-04-25T19:22:46.559Z,62.16
2023-04-25T19:25:13.114Z,62.39
2023-04-25T19:27:40.353Z,62.53
2023-04-25T19:30:07.808Z,62.57
2023-04-25T19:32:34.733Z,62.73
2023-04-25T19:35:01.985Z,62.76
2023-04-25T19:37:28.449Z,62.85
2023-04-25T19:39:57.176Z,62.77
2023-04-25T19:42:23.573Z,62.85
2023-04-25T19:44:50.810Z,62.94
2023-04-25T19:47:17.414Z,63.04
2023-04-25T19:49:43.886Z,63.17
2023-04-25T19:52:10.371Z,63.34
2023-04-25T19:54:36.807Z,63.38
2023-04-25T19:57:03.531Z,63.60
2023-04-25T19:59:30.219Z,64.03
2023-04-25T20:01:56.693Z,64.11
2023-04-25T20:04:23.163Z,64.26
2023-04-25T20:06:49.820Z,64.53
2023-04-25T20:09:16.294Z,64.72
2023-04-25T20:11:45.830Z,64.86
2023-04-25T20:14:12.812Z,65.19
2023-04-25T20:16:39.447Z,65.42
2023-04-25T20:19:06.080Z,65.57
2023-04-25T20:21:38.299Z,65.70
2023-04-25T20:24:05.070Z,65.65
2023-04-25T20:26:31.963Z,65.60
2023-04-25T20:29:00.247Z,65.73
2023-04-25T20:31:36.344Z,65.71
2023-04-25T20:34:02.873Z,65.82
2023-04-25T20:36:29.705Z,66.05
2023-04-25T20:38:56.291Z,66.53
2023-04-25T20:41:28.130Z,66.90
2023-04-25T20:44:04.755Z,66.91
2023-04-25T20:46:31.338Z,67.02
2023-04-25T20:48:57.848Z,67.06
2023-04-25T20:51:24.349Z,67.40
2023-04-25T20:53:50.965Z,67.47
2023-04-25T20:56:17.590Z,67.95
2023-04-25T20:58:44.049Z,67.98
2023-04-25T21:01:12.890Z,68.03
2023-04-25T21:03:39.602Z,68.19
2023-04-25T21:06:15.258Z,68.67
2023-04-25T21:08:41.829Z,69.24
2023-04-25T21:11:13.829Z,69.44
2023-04-25T21:13:40.275Z,69.50
2023-04-25T21:16:06.750Z,69.79
2023-04-25T21:18:33.129Z,70.15
2023-04-25T21:20:59.626Z,70.51
2023-04-25T21:23:26.310Z,70.75
2023-04-25T21:25:52.758Z,71.16
2023-04-25T21:28:21.298Z,71.75
2023-04-25T21:30:47.727Z,71.61
2023-04-25T21:33:14.286Z,72.07
2023-04-25T21:35:40.772Z,72.03
2023-04-25T21:38:07.079Z,71.98
2023-04-25T21:40:36.806Z,72.17
2023-04-25T21:43:03.129Z,72.11
2023-04-25T21:45:29.479Z,72.62
2023-04-25T21:47:55.805Z,72.67
2023-04-25T21:50:22.302Z,72.95
2023-04-25T21:52:48.624Z,72.82
2023-04-25T21:55:15.219Z,72.94
2023-04-25T21:57:41.652Z,72.91
2023-04-25T22:00:10.501Z,73.10
2023-04-25T22:02:37.474Z,73.37
2023-04-25T22:05:04.013Z,73.47
2023-04-25T22:07:30.372Z,73.41
2023-04-25T22:09:57.122Z,73.84
2023-04-25T22:12:23.722Z,73.70
2023-04-25T22:14:50.272Z,73.87
2023-04-25T22:17:16.603Z,73.76
2023-04-25T22:19:42.956Z,73.83
2023-04-25T22:22:09.462Z,74.28
2023-04-25T22:24:36.047Z,74.41
2023-04-25T22:27:02.480Z,74.29
2023-04-25T22:29:28.808Z,74.25
2023-04-25T22:31:55.237Z,74.30
2023-04-25T22:34:21.543Z,74.23
2023-04-25T22:36:47.922Z,74.61
2023-04-25T22:39:14.249Z,74.50
2023-04-25T22:41:40.535Z,74.34
2023-04-25T22:44:06.871Z,74.44
2023-04-25T22:46:33.267Z,74.56
2023-04-25T22:48:59.648Z,74.67
2023-04-25T22:51:26.020Z,74.68
2023-04-25T22:53:52.314Z,74.68
2023-04-25T22:56:18.894Z,74.62
2023-04-25T22:58:45.212Z,74.58
2023-04-25T23:01:11.681Z,74.49
2023-04-25T23:03:38.154Z,74.63
2023-04-25T23:06:04.706Z,74.59
2023-04-25T23:08:30.988Z,74.26
2023-04-25T23:10:57.308Z,74.15
2023-04-25T23:13:23.581Z,73.94
2023-04-25T23:15:50.008Z,73.80
2023-04-25T23:18:16.408Z,73.64
2023-04-25T23:20:42.747Z,73.42
2023-04-25T23:23:09.076Z,73.17
2023-04-25T23:25:38.653Z,72.79
2023-04-25T23:28:05.674Z,72.54
2023-04-25T23:30:32.041Z,72.30
2023-04-25T23:33:01.352Z,71.94
2023-04-25T23:35:27.836Z,71.52
2023-04-25T23:37:54.177Z,70.96
2023-04-25T23:40:20.968Z,70.60
2023-04-25T23:42:47.792Z,70.43
2023-04-25T23:45:14.121Z,70.22
2023-04-25T23:47:40.496Z,69.89
2023-04-25T23:50:07.073Z,69.79
2023-04-25T23:52:33.398Z,69.58
2023-04-25T23:54:59.810Z,69.49
2023-04-25T23:57:26.203Z,68.96
2023-04-25T23:59:52.785Z,68.67
